Time,TemperatureF,DewpointF,PressureIn,WindDirection,WindDirectionDegrees,WindSpeedMPH,WindSpeedGustMPH,Humidity,HourlyPrecipIn,Conditions,Clouds,dailyrainin,SoftwareType,DateUTC
2013-01-31 00:04:00,46.0,40.8,30.41,ENE,66,0.0,4.0,82,0.00,,,0.00,Wunderground v.1.13,2013-01-31 08:04:00,
2013-01-31 00:10:00,46.0,40.5,30.41,ENE,73,1.0,4.0,81,0.00,,,0.00,Wunderground v.1.13,2013-01-31 08:10:00,
2013-01-31 00:19:00,46.1,40.6,30.41,ENE,71,3.0,4.0,81,0.00,,,0.00,Wunderground v.1.13,2013-01-31 08:19:00,
2013-01-31 00:25:00,46.1,40.3,30.41,ENE,73,3.0,3.0,80,0.00,,,0.00,Wunderground v.1.13,2013-01-31 08:25:00,
2013-01-31 00:30:00,46.2,40.4,30.41,ENE,73,3.0,3.0,80,0.00,,,0.00,Wunderground v.1.13,2013-01-31 08:30:00,
2013-01-31 00:39:00,46.5,40.0,30.40,ENE,73,2.0,4.0,78,0.00,,,0.00,Wunderground v.1.13,2013-01-31 08:39:00,
2013-01-31 00:45:00,46.5,39.7,30.40,ENE,73,1.0,1.0,77,0.00,,,0.00,Wunderground v.1.13,2013-01-31 08:45:00,
2013-01-31 00:55:00,46.1,39.6,30.40,ENE,66,1.0,1.0,78,0.00,,,0.00,Wunderground v.1.13,2013-01-31 08:55:00,
2013-01-31 01:00:00,46.0,39.5,30.40,ENE,59,1.0,1.0,78,0.00,,,0.00,Wunderground v.1.13,2013-01-31 09:00:00,
2013-01-31 01:05:00,45.7,39.2,30.40,ENE,58,0.0,0.0,78,0.00,,,0.00,Wunderground v.1.13,2013-01-31 09:05:00,
2013-01-31 01:15:00,45.4,38.9,30.41,ENE,61,1.0,1.0,78,0.00,,,0.00,Wunderground v.1.13,2013-01-31 09:15:00,
2013-01-31 01:25:00,45.2,39.1,30.40,NE,52,1.0,2.0,79,0.00,,,0.00,Wunderground v.1.13,2013-01-31 09:25:00,
2013-01-31 01:34:00,45.5,39.0,30.40,NE,54,1.0,1.0,78,0.00,,,0.00,Wunderground v.1.13,2013-01-31 09:34:00,
2013-01-31 01:40:00,45.7,38.9,30.40,NE,39,1.0,1.0,77,0.00,,,0.00,Wunderground v.1.13,2013-01-31 09:40:00,
2013-01-31 01:50:00,46.0,38.9,30.40,ENE,57,1.0,5.0,76,0.00,,,0.00,Wunderground v.1.13,2013-01-31 09:50:00,
2013-01-31 02:00:00,45.7,38.2,30.40,NE,53,1.0,1.0,75,0.00,,,0.00,Wunderground v.1.13,2013-01-31 10:00:00,
2013-01-31 02:05:00,45.2,38.1,30.40,NE,52,1.0,1.0,76,0.00,,,0.00,Wunderground v.1.13,2013-01-31 10:05:00,
2013-01-31 02:14:00,44.5,38.1,30.40,ENE,70,0.0,5.0,78,0.00,,,0.00,Wunderground v.1.13,2013-01-31 10:14:00,
2013-01-31 02:20:00,44.6,37.8,30.40,NE,34,0.0,5.0,77,0.00,,,0.00,Wunderground v.1.13,2013-01-31 10:20:00,
2013-01-31 02:25:00,44.8,38.0,30.40,NE,46,0.0,5.0,77,0.00,,,0.00,Wunderground v.1.13,2013-01-31 10:25:00,
2013-01-31 02:34:00,44.8,37.7,30.40,ENE,59,1.0,5.0,76,0.00,,,0.00,Wunderground v.1.13,2013-01-31 10:34:00,
2013-01-31 02:40:00,44.9,37.8,30.39,NE,42,1.0,5.0,76,0.00,,,0.00,Wunderground v.1.13,2013-01-31 10:40:00,
2013-01-31 02:50:00,44.9,37.8,30.39,NE,43,1.0,5.0,76,0.00,,,0.00,Wunderground v.1.13,2013-01-31 10:50:00,
2013-01-31 02:55:00,44.9,37.5,30.39,NE,45,0.0,5.0,75,0.00,,,0.00,Wunderground v.1.13,2013-01-31 10:55:00,
2013-01-31 03:00:00,44.9,37.5,30.39,ENE,78,0.0,5.0,75,0.00,,,0.00,Wunderground v.1.13,2013-01-31 11:00:00,
2013-01-31 03:10:00,45.4,37.6,30.38,ENE,71,1.0,5.0,74,0.00,,,0.00,Wunderground v.1.13,2013-01-31 11:10:00,
2013-01-31 03:20:00,46.0,37.1,30.38,NE,48,1.0,1.0,71,0.00,,,0.00,Wunderground v.1.13,2013-01-31 11:20:00,
2013-01-31 03:30:00,46.4,36.0,30.38,ENE,75,0.0,5.0,67,0.00,,,0.00,Wunderground v.1.13,2013-01-31 11:30:00,
2013-01-31 03:40:00,46.2,35.1,30.38,ENE,75,1.0,5.0,65,0.00,,,0.00,Wunderground v.1.13,2013-01-31 11:40:00,
2013-01-31 03:45:00,46.0,34.5,30.38,ENE,68,1.0,1.0,64,0.00,,,0.00,Wunderground v.1.13,2013-01-31 11:45:00,
2013-01-31 03:55:00,45.1,34.0,30.38,NE,44,0.0,5.0,65,0.00,,,0.00,Wunderground v.1.13,2013-01-31 11:55:00,
2013-01-31 04:05:00,44.6,34.3,30.38,NE,41,0.0,5.0,67,0.00,,,0.00,Wunderground v.1.13,2013-01-31 12:05:00,
2013-01-31 04:14:00,44.3,34.8,30.39,NE,41,1.0,5.0,69,0.00,,,0.00,Wunderground v.1.13,2013-01-31 12:14:00,
2013-01-31 04:20:00,44.3,35.1,30.39,NE,41,1.0,1.0,70,0.00,,,0.00,Wunderground v.1.13,2013-01-31 12:20:00,
2013-01-31 04:30:00,44.8,34.9,30.39,ENE,69,0.0,5.0,68,0.00,,,0.00,Wunderground v.1.13,2013-01-31 12:30:00,
2013-01-31 04:35:00,44.8,34.9,30.39,ENE,69,1.0,5.0,68,0.00,,,0.00,Wunderground v.1.13,2013-01-31 12:35:00,
2013-01-31 04:44:00,44.9,37.5,30.39,ENE,69,0.0,5.0,75,0.00,,,0.00,Wunderground v.1.13,2013-01-31 12:44:00,
2013-01-31 04:50:00,44.9,37.1,30.39,ENE,69,0.0,5.0,74,0.00,,,0.00,Wunderground v.1.13,2013-01-31 12:50:00,
2013-01-31 04:59:00,44.8,34.9,30.40,ENE,69,1.0,5.0,68,0.00,,,0.00,Wunderground v.1.13,2013-01-31 12:59:00,
2013-01-31 05:04:00,44.6,34.7,30.40,ENE,69,1.0,5.0,68,0.00,,,0.00,Wunderground v.1.13,2013-01-31 13:04:00,
2013-01-31 05:10:00,44.3,34.8,30.40,ENE,69,2.0,5.0,69,0.00,,,0.00,Wunderground v.1.13,2013-01-31 13:10:00,
2013-01-31 05:15:00,44.3,34.4,30.40,ENE,69,1.0,1.0,68,0.00,,,0.00,Wunderground v.1.13,2013-01-31 13:15:00,
2013-01-31 05:24:00,44.1,34.2,30.40,ENE,69,0.0,5.0,68,0.00,,,0.00,Wunderground v.1.13,2013-01-31 13:24:00,
2013-01-31 05:29:00,44.1,34.6,30.40,ENE,69,1.0,5.0,69,0.00,,,0.00,Wunderground v.1.13,2013-01-31 13:29:00,
2013-01-31 05:35:00,43.8,34.3,30.40,ENE,69,2.0,5.0,69,0.00,,,0.00,Wunderground v.1.13,2013-01-31 13:35:00,
2013-01-31 05:45:00,43.3,33.8,30.41,East,80,3.0,5.0,69,0.00,,,0.00,Wunderground v.1.13,2013-01-31 13:45:00,
2013-01-31 05:55:00,42.5,33.4,30.41,East,92,3.0,5.0,70,0.00,,,0.00,Wunderground v.1.13,2013-01-31 13:55:00,
2013-01-31 06:05:00,43.3,33.4,30.41,East,92,3.0,5.0,68,0.00,,,0.00,Wunderground v.1.13,2013-01-31 14:05:00,
2013-01-31 06:10:00,43.3,33.4,30.41,East,83,4.0,5.0,68,0.00,,,0.00,Wunderground v.1.13,2013-01-31 14:10:00,
2013-01-31 06:20:00,43.3,33.4,30.41,East,80,4.0,4.0,68,0.00,,,0.00,Wunderground v.1.13,2013-01-31 14:20:00,
2013-01-31 06:29:00,43.5,32.9,30.41,East,80,4.0,5.0,66,0.00,,,0.00,Wunderground v.1.13,2013-01-31 14:29:00,
2013-01-31 06:35:00,43.6,32.6,30.41,East,80,4.0,5.0,65,0.00,,,0.00,Wunderground v.1.13,2013-01-31 14:35:00,
2013-01-31 06:40:00,44.2,32.8,30.41,East,80,4.0,5.0,64,0.00,,,0.00,Wunderground v.1.13,2013-01-31 14:40:00,
2013-01-31 06:45:00,44.1,32.7,30.41,East,80,3.0,5.0,64,0.00,,,0.00,Wunderground v.1.13,2013-01-31 14:45:00,
2013-01-31 07:00:00,43.6,33.0,30.42,East,80,3.0,5.0,66,0.00,,,0.00,Wunderground v.1.13,2013-01-31 15:00:00,
2013-01-31 07:09:00,44.1,32.7,30.42,East,80,2.0,5.0,64,0.00,,,0.00,Wunderground v.1.13,2013-01-31 15:09:00,
2013-01-31 07:15:00,44.3,32.9,30.42,East,80,1.0,1.0,64,0.00,,,0.00,Wunderground v.1.13,2013-01-31 15:15:00,
2013-01-31 07:25:00,44.1,33.5,30.42,East,80,0.0,5.0,66,0.00,,,0.00,Wunderground v.1.13,2013-01-31 15:25:00,
2013-01-31 07:34:00,43.9,33.3,30.42,East,80,1.0,5.0,66,0.00,,,0.00,Wunderground v.1.13,2013-01-31 15:34:00,
2013-01-31 07:40:00,43.8,33.9,30.42,East,80,2.0,5.0,68,0.00,,,0.00,Wunderground v.1.13,2013-01-31 15:40:00,
2013-01-31 07:50:00,43.8,33.9,30.43,East,80,1.0,1.0,68,0.00,,,0.00,Wunderground v.1.13,2013-01-31 15:50:00,
2013-01-31 07:55:00,43.9,34.4,30.43,East,80,1.0,5.0,69,0.00,,,0.00,Wunderground v.1.13,2013-01-31 15:55:00,
2013-01-31 08:05:00,44.5,34.2,30.43,East,80,1.0,1.0,67,0.00,,,0.00,Wunderground v.1.13,2013-01-31 16:05:00,
2013-01-31 08:10:00,44.8,34.5,30.43,East,80,0.0,5.0,67,0.00,,,0.00,Wunderground v.1.13,2013-01-31 16:10:00,
2013-01-31 08:20:00,45.5,34.4,30.43,East,80,0.0,5.0,65,0.00,,,0.00,Wunderground v.1.13,2013-01-31 16:20:00,
2013-01-31 08:29:00,46.4,34.5,30.43,East,80,0.0,5.0,63,0.00,,,0.00,Wunderground v.1.13,2013-01-31 16:29:00,
2013-01-31 08:35:00,46.5,34.2,30.43,East,80,0.0,5.0,62,0.00,,,0.00,Wunderground v.1.13,2013-01-31 16:35:00,
2013-01-31 08:45:00,47.6,35.6,30.43,East,80,0.0,5.0,63,0.00,,,0.00,Wunderground v.1.13,2013-01-31 16:45:00,
2013-01-31 08:50:00,48.0,36.0,30.43,East,80,0.0,5.0,63,0.00,,,0.00,Wunderground v.1.13,2013-01-31 16:50:00,
2013-01-31 08:59:00,48.5,36.1,30.43,East,80,0.0,5.0,62,0.00,,,0.00,Wunderground v.1.13,2013-01-31 16:59:00,
2013-01-31 09:04:00,48.6,34.5,30.43,East,80,0.0,5.0,58,0.00,,,0.00,Wunderground v.1.13,2013-01-31 17:04:00,
2013-01-31 09:10:00,49.5,37.0,30.43,East,80,0.0,5.0,62,0.00,,,0.00,Wunderground v.1.13,2013-01-31 17:10:00,
2013-01-31 09:20:00,49.8,36.0,30.43,East,80,0.0,5.0,59,0.00,,,0.00,Wunderground v.1.13,2013-01-31 17:20:00,
2013-01-31 09:34:00,50.4,38.3,30.43,East,80,0.0,5.0,63,0.00,,,0.00,Wunderground v.1.13,2013-01-31 17:34:00,
2013-01-31 09:40:00,50.8,37.0,30.43,East,80,0.0,5.0,59,0.00,,,0.00,Wunderground v.1.13,2013-01-31 17:40:00,
2013-01-31 09:45:00,51.7,36.0,30.42,East,80,0.0,5.0,55,0.00,,,0.00,Wunderground v.1.13,2013-01-31 17:45:00,
2013-01-31 09:55:00,52.6,36.4,30.42,East,80,0.0,5.0,54,0.00,,,0.00,Wunderground v.1.13,2013-01-31 17:55:00,
2013-01-31 10:05:00,53.1,38.3,30.42,East,80,0.0,5.0,57,0.00,,,0.00,Wunderground v.1.13,2013-01-31 18:05:00,
2013-01-31 10:15:00,53.5,39.5,30.42,East,80,0.0,5.0,59,0.00,,,0.00,Wunderground v.1.13,2013-01-31 18:15:00,
2013-01-31 10:25:00,54.1,38.3,30.41,East,80,0.0,5.0,55,0.00,,,0.00,Wunderground v.1.13,2013-01-31 18:25:00,
2013-01-31 10:35:00,54.7,38.8,30.41,East,80,0.0,5.0,55,0.00,,,0.00,Wunderground v.1.13,2013-01-31 18:35:00,
2013-01-31 10:44:00,56.0,37.6,30.40,East,101,0.0,5.0,50,0.00,,,0.00,Wunderground v.1.13,2013-01-31 18:44:00,
2013-01-31 10:50:00,56.5,37.0,30.41,East,101,0.0,5.0,48,0.00,,,0.00,Wunderground v.1.13,2013-01-31 18:50:00,
2013-01-31 10:55:00,56.5,36.5,30.40,East,101,0.0,5.0,47,0.00,,,0.00,Wunderground v.1.13,2013-01-31 18:55:00,
2013-01-31 11:04:00,57.8,37.1,30.40,East,101,0.0,5.0,46,0.00,,,0.00,Wunderground v.1.13,2013-01-31 19:04:00,
2013-01-31 11:10:00,57.3,36.7,30.40,SSE,160,0.0,5.0,46,0.00,,,0.00,Wunderground v.1.13,2013-01-31 19:10:00,
2013-01-31 11:20:00,57.8,37.1,30.39,SSE,161,0.0,5.0,46,0.00,,,0.00,Wunderground v.1.13,2013-01-31 19:20:00,
2013-01-31 11:30:00,58.3,37.6,30.39,South,175,0.0,5.0,46,0.00,,,0.00,Wunderground v.1.13,2013-01-31 19:30:00,
2013-01-31 11:35:00,58.3,36.5,30.39,SW,225,0.0,5.0,44,0.00,,,0.00,Wunderground v.1.13,2013-01-31 19:35:00,
2013-01-31 11:40:00,58.3,35.9,30.38,South,184,1.0,5.0,43,0.00,,,0.00,Wunderground v.1.13,2013-01-31 19:40:00,
2013-01-31 11:50:00,58.6,36.2,30.38,South,169,0.0,5.0,43,0.00,,,0.00,Wunderground v.1.13,2013-01-31 19:50:00,
2013-01-31 11:59:00,59.8,37.2,30.37,East,94,1.0,1.0,43,0.00,,,0.00,Wunderground v.1.13,2013-01-31 19:59:00,
2013-01-31 12:05:00,60.1,36.3,30.37,South,184,0.0,5.0,41,0.00,,,0.00,Wunderground v.1.13,2013-01-31 20:05:00,
2013-01-31 12:14:00,59.9,37.9,30.37,ESE,117,0.0,5.0,44,0.00,,,0.00,Wunderground v.1.13,2013-01-31 20:14:00,
2013-01-31 12:19:00,59.8,36.6,30.36,SE,134,0.0,5.0,42,0.00,,,0.00,Wunderground v.1.13,2013-01-31 20:19:00,
2013-01-31 12:25:00,60.7,38.1,30.36,South,178,0.0,5.0,43,0.00,,,0.00,Wunderground v.1.13,2013-01-31 20:25:00,
2013-01-31 12:35:00,60.1,36.3,30.36,South,183,1.0,5.0,41,0.00,,,0.00,Wunderground v.1.13,2013-01-31 20:35:00,
2013-01-31 12:44:00,60.2,35.8,30.36,SW,234,0.0,5.0,40,0.00,,,0.00,Wunderground v.1.13,2013-01-31 20:44:00,
2013-01-31 12:50:00,59.8,37.8,30.35,SE,136,0.0,5.0,44,0.00,,,0.00,Wunderground v.1.13,2013-01-31 20:50:00,
2013-01-31 12:55:00,60.1,35.7,30.35,SSW,197,0.0,5.0,40,0.00,,,0.00,Wunderground v.1.13,2013-01-31 20:55:00,
2013-01-31 13:05:00,60.7,34.9,30.35,South,184,0.0,0.0,38,0.00,,,0.00,Wunderground v.1.13,2013-01-31 21:05:00,
2013-01-31 13:15:00,60.4,37.2,30.35,SSE,165,0.0,1.0,42,0.00,,,0.00,Wunderground v.1.13,2013-01-31 21:15:00,
2013-01-31 13:20:00,60.2,35.1,30.35,SW,234,0.0,1.0,39,0.00,,,0.00,Wunderground v.1.13,2013-01-31 21:20:00,
2013-01-31 13:30:00,59.6,35.2,30.35,SSE,156,1.0,1.0,40,0.00,,,0.00,Wunderground v.1.13,2013-01-31 21:30:00,
2013-01-31 13:35:00,59.6,36.5,30.34,SSE,152,1.0,1.0,42,0.00,,,0.00,Wunderground v.1.13,2013-01-31 21:35:00,
2013-01-31 13:44:00,60.4,35.9,30.34,WSW,248,0.0,0.0,40,0.00,,,0.00,Wunderground v.1.13,2013-01-31 21:44:00,
2013-01-31 13:55:00,60.2,35.1,30.34,SE,140,1.0,1.0,39,0.00,,,0.00,Wunderground v.1.13,2013-01-31 21:55:00,
2013-01-31 14:04:00,60.1,36.3,30.34,SW,217,1.0,3.0,41,0.00,,,0.00,Wunderground v.1.13,2013-01-31 22:04:00,
2013-01-31 14:09:00,60.1,36.3,30.34,SSE,163,1.0,1.0,41,0.00,,,0.00,Wunderground v.1.13,2013-01-31 22:09:00,
2013-01-31 14:15:00,60.2,37.0,30.33,West,270,0.0,3.0,42,0.00,,,0.00,Wunderground v.1.13,2013-01-31 22:15:00,
2013-01-31 14:24:00,60.7,37.5,30.33,West,268,1.0,1.0,42,0.00,,,0.00,Wunderground v.1.13,2013-01-31 22:24:00,
2013-01-31 14:30:00,61.0,40.1,30.33,West,281,1.0,3.0,46,0.00,,,0.00,Wunderground v.1.13,2013-01-31 22:30:00,
2013-01-31 14:39:00,60.2,39.9,30.33,West,279,0.0,3.0,47,0.00,,,0.00,Wunderground v.1.13,2013-01-31 22:39:00,
2013-01-31 14:45:00,60.1,40.3,30.32,North,355,0.0,3.0,48,0.00,,,0.00,Wunderground v.1.13,2013-01-31 22:45:00,
2013-01-31 14:55:00,59.2,42.1,30.33,WNW,286,1.0,3.0,53,0.00,,,0.00,Wunderground v.1.13,2013-01-31 22:55:00,
2013-01-31 15:04:00,58.3,41.7,30.33,WSW,252,2.0,2.0,54,0.00,,,0.00,Wunderground v.1.13,2013-01-31 23:04:00,
2013-01-31 15:10:00,58.3,42.2,30.33,WNW,296,1.0,1.0,55,0.00,,,0.00,Wunderground v.1.13,2013-01-31 23:10:00,
2013-01-31 15:19:00,58.0,41.9,30.33,WNW,292,1.0,1.0,55,0.00,,,0.00,Wunderground v.1.13,2013-01-31 23:19:00,
2013-01-31 15:24:00,58.0,42.4,30.33,West,279,2.0,2.0,56,0.00,,,0.00,Wunderground v.1.13,2013-01-31 23:24:00,
2013-01-31 15:30:00,57.8,42.2,30.33,WNW,295,1.0,1.0,56,0.00,,,0.00,Wunderground v.1.13,2013-01-31 23:30:00,
2013-01-31 15:39:00,57.3,42.6,30.34,SSW,211,1.0,3.0,58,0.00,,,0.00,Wunderground v.1.13,2013-01-31 23:39:00,
2013-01-31 15:45:00,57.2,42.5,30.34,WNW,297,1.0,3.0,58,0.00,,,0.00,Wunderground v.1.13,2013-01-31 23:45:00,
2013-01-31 15:54:00,56.9,42.7,30.34,West,260,2.0,3.0,59,0.00,,,0.00,Wunderground v.1.13,2013-01-31 23:54:00,
2013-01-31 16:00:00,56.7,42.5,30.34,WNW,291,2.0,3.0,59,0.00,,,0.00,Wunderground v.1.13,2013-02-01 00:00:00,
2013-01-31 16:05:00,56.6,42.4,30.34,WNW,296,2.0,3.0,59,0.00,,,0.00,Wunderground v.1.13,2013-02-01 00:05:00,
2013-01-31 16:15:00,56.2,42.9,30.34,WSW,253,2.0,2.0,61,0.00,,,0.00,Wunderground v.1.13,2013-02-01 00:15:00,
2013-01-31 16:25:00,55.6,43.2,30.34,West,263,2.0,4.0,63,0.00,,,0.00,Wunderground v.1.13,2013-02-01 00:25:00,
2013-01-31 16:34:00,55.1,42.7,30.34,SW,229,2.0,4.0,63,0.00,,,0.00,Wunderground v.1.13,2013-02-01 00:34:00,
2013-01-31 16:40:00,54.8,42.9,30.34,West,275,1.0,3.0,64,0.00,,,0.00,Wunderground v.1.13,2013-02-01 00:40:00,
2013-01-31 16:45:00,54.5,43.0,30.34,West,280,1.0,1.0,65,0.00,,,0.00,Wunderground v.1.13,2013-02-01 00:45:00,
2013-01-31 16:54:00,54.1,42.6,30.34,West,280,0.0,3.0,65,0.00,,,0.00,Wunderground v.1.13,2013-02-01 00:54:00,
2013-01-31 17:00:00,53.8,42.7,30.34,WNW,290,1.0,1.0,66,0.00,,,0.00,Wunderground v.1.13,2013-02-01 01:00:00,
2013-01-31 17:10:00,53.1,42.8,30.35,WNW,290,0.0,3.0,68,0.00,,,0.00,Wunderground v.1.13,2013-02-01 01:10:00,
2013-01-31 17:20:00,52.3,42.4,30.35,WNW,290,0.0,3.0,69,0.00,,,0.00,Wunderground v.1.13,2013-02-01 01:20:00,
2013-01-31 17:25:00,52.0,42.1,30.35,WNW,290,0.0,3.0,69,0.00,,,0.00,Wunderground v.1.13,2013-02-01 01:25:00,
2013-01-31 17:35:00,51.7,42.2,30.35,WNW,290,0.0,3.0,70,0.00,,,0.00,Wunderground v.1.13,2013-02-01 01:35:00,
2013-01-31 17:44:00,52.0,42.1,30.35,WNW,291,0.0,3.0,69,0.00,,,0.00,Wunderground v.1.13,2013-02-01 01:44:00,
2013-01-31 17:50:00,52.2,42.3,30.35,WNW,291,0.0,3.0,69,0.00,,,0.00,Wunderground v.1.13,2013-02-01 01:50:00,
2013-01-31 17:59:00,52.2,41.6,30.36,WNW,291,0.0,3.0,67,0.00,,,0.00,Wunderground v.1.13,2013-02-01 01:59:00,
2013-01-31 18:05:00,52.2,41.2,30.36,WNW,291,0.0,3.0,66,0.00,,,0.00,Wunderground v.1.13,2013-02-01 02:05:00,
2013-01-31 18:14:00,52.6,41.6,30.35,WNW,291,0.0,3.0,66,0.00,,,0.00,Wunderground v.1.13,2013-02-01 02:14:00,
2013-01-31 18:20:00,53.1,41.6,30.35,ENE,65,0.0,3.0,65,0.00,,,0.00,Wunderground v.1.13,2013-02-01 02:20:00,
2013-01-31 18:29:00,52.5,41.9,30.35,ENE,65,2.0,3.0,67,0.00,,,0.00,Wunderground v.1.13,2013-02-01 02:29:00,
2013-01-31 18:35:00,51.9,41.7,30.35,ENE,65,3.0,3.0,68,0.00,,,0.00,Wunderground v.1.13,2013-02-01 02:35:00,
2013-01-31 18:44:00,51.3,41.8,30.35,ENE,76,3.0,4.0,70,0.00,,,0.00,Wunderground v.1.13,2013-02-01 02:44:00,
2013-01-31 18:49:00,51.3,42.2,30.35,ENE,76,4.0,4.0,71,0.00,,,0.00,Wunderground v.1.13,2013-02-01 02:49:00,
2013-01-31 18:55:00,51.0,41.9,30.35,ENE,77,4.0,4.0,71,0.00,,,0.00,Wunderground v.1.13,2013-02-01 02:55:00,
2013-01-31 19:05:00,50.2,41.9,30.35,ENE,78,4.0,4.0,73,0.00,,,0.00,Wunderground v.1.13,2013-02-01 03:05:00,
2013-01-31 19:14:00,49.8,41.8,30.35,ENE,74,5.0,5.0,74,0.00,,,0.00,Wunderground v.1.13,2013-02-01 03:14:00,
2013-01-31 19:20:00,49.8,41.8,30.35,ENE,74,5.0,5.0,74,0.00,,,0.00,Wunderground v.1.13,2013-02-01 03:20:00,
2013-01-31 19:25:00,49.5,42.2,30.35,East,80,5.0,6.0,76,0.00,,,0.00,Wunderground v.1.13,2013-02-01 03:25:00,
2013-01-31 19:34:00,49.2,42.0,30.35,East,79,5.0,5.0,76,0.00,,,0.00,Wunderground v.1.13,2013-02-01 03:34:00,
2013-01-31 19:40:00,49.1,41.9,30.35,East,80,5.0,5.0,76,0.00,,,0.00,Wunderground v.1.13,2013-02-01 03:40:00,
2013-01-31 19:45:00,49.1,41.9,30.35,East,80,5.0,6.0,76,0.00,,,0.00,Wunderground v.1.13,2013-02-01 03:45:00,
2013-01-31 19:55:00,48.9,42.0,30.35,East,79,4.0,4.0,77,0.00,,,0.00,Wunderground v.1.13,2013-02-01 03:55:00,
2013-01-31 20:00:00,49.4,42.1,30.35,East,79,3.0,3.0,76,0.00,,,0.00,Wunderground v.1.13,2013-02-01 04:00:00,
2013-01-31 20:09:00,49.4,41.8,30.35,ENE,76,3.0,5.0,75,0.00,,,0.00,Wunderground v.1.13,2013-02-01 04:09:00,
2013-01-31 20:15:00,49.6,41.7,30.34,East,79,5.0,6.0,74,0.00,,,0.00,Wunderground v.1.13,2013-02-01 04:15:00,
2013-01-31 20:25:00,49.8,41.5,30.34,ENE,76,4.0,4.0,73,0.00,,,0.00,Wunderground v.1.13,2013-02-01 04:25:00,
2013-01-31 20:30:00,49.8,41.5,30.34,ENE,74,3.0,4.0,73,0.00,,,0.00,Wunderground v.1.13,2013-02-01 04:30:00,
2013-01-31 20:40:00,50.1,41.4,30.33,ENE,72,4.0,4.0,72,0.00,,,0.00,Wunderground v.1.13,2013-02-01 04:40:00,
2013-01-31 20:45:00,50.2,41.9,30.33,ENE,72,4.0,4.0,73,0.00,,,0.00,Wunderground v.1.13,2013-02-01 04:45:00,
2013-01-31 20:55:00,49.9,41.6,30.33,ENE,73,4.0,4.0,73,0.00,,,0.00,Wunderground v.1.13,2013-02-01 04:55:00,
2013-01-31 21:05:00,50.2,41.5,30.33,East,84,4.0,6.0,72,0.00,,,0.00,Wunderground v.1.13,2013-02-01 05:05:00,
2013-01-31 21:15:00,50.1,41.4,30.33,ENE,73,5.0,5.0,72,0.00,,,0.00,Wunderground v.1.13,2013-02-01 05:15:00,
2013-01-31 21:19:00,49.8,41.1,30.33,ENE,70,4.0,5.0,72,0.00,,,0.00,Wunderground v.1.13,2013-02-01 05:19:00,
2013-01-31 21:25:00,49.8,41.5,30.33,ENE,73,4.0,4.0,73,0.00,,,0.00,Wunderground v.1.13,2013-02-01 05:25:00,
2013-01-31 21:35:00,49.5,40.8,30.33,ENE,75,5.0,5.0,72,0.00,,,0.00,Wunderground v.1.13,2013-02-01 05:35:00,
2013-01-31 21:44:00,49.4,41.1,30.33,East,79,5.0,5.0,73,0.00,,,0.00,Wunderground v.1.13,2013-02-01 05:44:00,
2013-01-31 21:50:00,49.2,40.6,30.33,ENE,70,5.0,5.0,72,0.00,,,0.00,Wunderground v.1.13,2013-02-01 05:50:00,
2013-01-31 22:00:00,49.2,40.2,30.33,ENE,69,5.0,5.0,71,0.00,,,0.00,Wunderground v.1.13,2013-02-01 06:00:00,
2013-01-31 22:05:00,49.2,40.2,30.33,ENE,72,5.0,6.0,71,0.00,,,0.00,Wunderground v.1.13,2013-02-01 06:05:00,
2013-01-31 22:15:00,49.2,40.2,30.31,ENE,76,5.0,5.0,71,0.00,,,0.00,Wunderground v.1.13,2013-02-01 06:15:00,
2013-01-31 22:25:00,48.8,40.2,30.31,ENE,69,5.0,5.0,72,0.00,,,0.00,Wunderground v.1.13,2013-02-01 06:25:00,
2013-01-31 22:35:00,48.6,39.6,30.31,ENE,73,6.0,7.0,71,0.00,,,0.00,Wunderground v.1.13,2013-02-01 06:35:00,
2013-01-31 22:44:00,48.6,39.6,30.31,ENE,76,6.0,6.0,71,0.00,,,0.00,Wunderground v.1.13,2013-02-01 06:44:00,
2013-01-31 22:50:00,48.5,39.5,30.31,East,87,5.0,7.0,71,0.00,,,0.00,Wunderground v.1.13,2013-02-01 06:50:00,
2013-01-31 23:00:00,48.5,39.5,30.31,ENE,78,7.0,9.0,71,0.00,,,0.00,Wunderground v.1.13,2013-02-01 07:00:00,
2013-01-31 23:10:00,47.9,38.9,30.31,ENE,70,6.0,7.0,71,0.00,,,0.00,Wunderground v.1.13,2013-02-01 07:10:00,
2013-01-31 23:19:00,47.6,38.7,30.31,ENE,72,6.0,9.0,71,0.00,,,0.00,Wunderground v.1.13,2013-02-01 07:19:00,
2013-01-31 23:30:00,47.6,38.7,30.31,ENE,73,6.0,6.0,71,0.00,,,0.00,Wunderground v.1.13,2013-02-01 07:30:00,
2013-01-31 23:40:00,47.4,38.5,30.31,East,84,7.0,7.0,71,0.00,,,0.00,Wunderground v.1.13,2013-02-01 07:40:00,
2013-01-31 23:50:00,47.6,38.3,30.31,East,79,7.0,7.0,70,0.00,,,0.00,Wunderground v.1.13,2013-02-01 07:50:00,
2013-01-31 23:55:00,47.6,37.9,30.31,ENE,70,7.0,7.0,69,0.00,,,0.00,Wunderground v.1.13,2013-02-01 07:55:00,